sensor_id;sensor_type;location;lat;lon;timestamp;P1;P2;P0
46094;PMS5003;31832;50.746;-2.716;2024-02-21T00:01:14;7;7;
46094;PMS5003;31832;50.746;-2.716;2024-02-21T00:03:37;8;7;
46094;PMS5003;31832;50.746;-2.716;2024-02-21T00:06:03;8;7;
46094;PMS5003;31832;50.746;-2.716;2024-02-21T00:08:28;15;13;
46094;PMS5003;31832;50.746;-2.716;2024-02-21T00:10:54;11;11;
46094;PMS5003;31832;50.746;-2.716;2024-02-21T00:13:20;12;10;
46094;PMS5003;31832;50.746;-2.716;2024-02-21T00:15:45;9;7;
46094;PMS5003;31832;50.746;-2.716;2024-02-21T00:18:10;8;6;
46094;PMS5003;31832;50.746;-2.716;2024-02-21T00:20:36;10;8;
46094;PMS5003;31832;50.746;-2.716;2024-02-21T00:23:03;7;6;
46094;PMS5003;31832;50.746;-2.716;2024-02-21T00:25:27;8;6;
46094;PMS5003;31832;50.746;-2.716;2024-02-21T00:27:53;9;8;
46094;PMS5003;31832;50.746;-2.716;2024-02-21T00:30:18;7;6;
46094;PMS5003;31832;50.746;-2.716;2024-02-21T00:32:44;9;8;
46094;PMS5003;31832;50.746;-2.716;2024-02-21T00:35:09;9;7;
46094;PMS5003;31832;50.746;-2.716;2024-02-21T00:37:35;10;9;
46094;PMS5003;31832;50.746;-2.716;2024-02-21T00:40:00;11;9;
46094;PMS5003;31832;50.746;-2.716;2024-02-21T00:42:25;8;7;
46094;PMS5003;31832;50.746;-2.716;2024-02-21T00:44:51;5;5;
46094;PMS5003;31832;50.746;-2.716;2024-02-21T00:47:16;9;8;
46094;PMS5003;31832;50.746;-2.716;2024-02-21T00:49:41;8;8;
46094;PMS5003;31832;50.746;-2.716;2024-02-21T00:52:07;11;7;
46094;PMS5003;31832;50.746;-2.716;2024-02-21T00:54:33;9;7;
46094;PMS5003;31832;50.746;-2.716;2024-02-21T00:56:58;9;8;
46094;PMS5003;31832;50.746;-2.716;2024-02-21T00:59:23;10;8;
46094;PMS5003;31832;50.746;-2.716;2024-02-21T01:01:48;6;6;
46094;PMS5003;31832;50.746;-2.716;2024-02-21T01:04:14;10;8;
46094;PMS5003;31832;50.746;-2.716;2024-02-21T01:06:39;9;8;
46094;PMS5003;31832;50.746;-2.716;2024-02-21T01:09:05;11;10;
46094;PMS5003;31832;50.746;-2.716;2024-02-21T01:11:30;12;8;
46094;PMS5003;31832;50.746;-2.716;2024-02-21T01:13:55;9;7;
46094;PMS5003;31832;50.746;-2.716;2024-02-21T01:16:20;8;8;
46094;PMS5003;31832;50.746;-2.716;2024-02-21T01:18:46;9;6;
46094;PMS5003;31832;50.746;-2.716;2024-02-21T01:21:11;13;9;
46094;PMS5003;31832;50.746;-2.716;2024-02-21T01:23:36;9;7;
46094;PMS5003;31832;50.746;-2.716;2024-02-21T01:26:02;14;10;
46094;PMS5003;31832;50.746;-2.716;2024-02-21T01:28:27;10;8;
46094;PMS5003;31832;50.746;-2.716;2024-02-21T01:30:52;8;8;
46094;PMS5003;31832;50.746;-2.716;2024-02-21T01:33:17;10;8;
46094;PMS5003;31832;50.746;-2.716;2024-02-21T01:35:43;7;6;
46094;PMS5003;31832;50.746;-2.716;2024-02-21T01:38:08;12;11;
46094;PMS5003;31832;50.746;-2.716;2024-02-21T01:40:33;13;11;
46094;PMS5003;31832;50.746;-2.716;2024-02-21T01:42:59;11;11;
46094;PMS5003;31832;50.746;-2.716;2024-02-21T01:45:25;10;10;
46094;PMS5003;31832;50.746;-2.716;2024-02-21T01:47:50;11;10;
46094;PMS5003;31832;50.746;-2.716;2024-02-21T01:50:16;11;11;
46094;PMS5003;31832;50.746;-2.716;2024-02-21T01:52:41;8;8;
46094;PMS5003;31832;50.746;-2.716;2024-02-21T01:55:07;8;7;
46094;PMS5003;31832;50.746;-2.716;2024-02-21T01:57:32;10;10;
46094;PMS5003;31832;50.746;-2.716;2024-02-21T01:59:57;16;12;
46094;PMS5003;31832;50.746;-2.716;2024-02-21T02:02:22;12;10;
46094;PMS5003;31832;50.746;-2.716;2024-02-21T02:04:48;12;11;
46094;PMS5003;31832;50.746;-2.716;2024-02-21T02:07:14;13;10;
46094;PMS5003;31832;50.746;-2.716;2024-02-21T02:09:39;11;10;
46094;PMS5003;31832;50.746;-2.716;2024-02-21T02:12:05;16;10;
46094;PMS5003;31832;50.746;-2.716;2024-02-21T02:14:29;11;9;
46094;PMS5003;31832;50.746;-2.716;2024-02-21T02:16:55;10;9;
46094;PMS5003;31832;50.746;-2.716;2024-02-21T02:19:20;10;10;
46094;PMS5003;31832;50.746;-2.716;2024-02-21T02:21:46;10;9;
46094;PMS5003;31832;50.746;-2.716;2024-02-21T02:24:11;14;11;
46094;PMS5003;31832;50.746;-2.716;2024-02-21T02:26:36;6;6;
46094;PMS5003;31832;50.746;-2.716;2024-02-21T02:29:01;6;5;
46094;PMS5003;31832;50.746;-2.716;2024-02-21T02:31:26;7;7;
46094;PMS5003;31832;50.746;-2.716;2024-02-21T02:33:52;7;6;
46094;PMS5003;31832;50.746;-2.716;2024-02-21T02:36:17;8;5;
46094;PMS5003;31832;50.746;-2.716;2024-02-21T02:38:43;10;7;
46094;PMS5003;31832;50.746;-2.716;2024-02-21T02:41:08;6;5;
46094;PMS5003;31832;50.746;-2.716;2024-02-21T02:43:35;6;5;
46094;PMS5003;31832;50.746;-2.716;2024-02-21T02:46:02;9;7;
46094;PMS5003;31832;50.746;-2.716;2024-02-21T02:48:24;5;5;
46094;PMS5003;31832;50.746;-2.716;2024-02-21T02:50:50;9;5;
46094;PMS5003;31832;50.746;-2.716;2024-02-21T02:53:15;6;5;
46094;PMS5003;31832;50.746;-2.716;2024-02-21T02:55:40;7;6;
46094;PMS5003;31832;50.746;-2.716;2024-02-21T02:58:06;6;5;
46094;PMS5003;31832;50.746;-2.716;2024-02-21T03:00:32;7;5;
46094;PMS5003;31832;50.746;-2.716;2024-02-21T03:02:57;4;4;
46094;PMS5003;31832;50.746;-2.716;2024-02-21T03:05:22;4;4;
46094;PMS5003;31832;50.746;-2.716;2024-02-21T03:07:48;5;5;
46094;PMS5003;31832;50.746;-2.716;2024-02-21T03:10:13;6;6;
46094;PMS5003;31832;50.746;-2.716;2024-02-21T03:12:39;13;8;
46094;PMS5003;31832;50.746;-2.716;2024-02-21T03:15:05;8;7;
46094;PMS5003;31832;50.746;-2.716;2024-02-21T03:17:29;4;4;
46094;PMS5003;31832;50.746;-2.716;2024-02-21T03:19:54;6;5;
46094;PMS5003;31832;50.746;-2.716;2024-02-21T03:22:19;6;5;
46094;PMS5003;31832;50.746;-2.716;2024-02-21T03:24:44;6;5;
46094;PMS5003;31832;50.746;-2.716;2024-02-21T03:27:10;6;5;
46094;PMS5003;31832;50.746;-2.716;2024-02-21T03:29:35;5;4;
46094;PMS5003;31832;50.746;-2.716;2024-02-21T03:32:00;4;4;
46094;PMS5003;31832;50.746;-2.716;2024-02-21T03:34:26;8;5;
46094;PMS5003;31832;50.746;-2.716;2024-02-21T03:36:51;9;9;
46094;PMS5003;31832;50.746;-2.716;2024-02-21T03:39:17;9;6;
46094;PMS5003;31832;50.746;-2.716;2024-02-21T03:41:42;6;5;
46094;PMS5003;31832;50.746;-2.716;2024-02-21T03:44:08;10;7;
46094;PMS5003;31832;50.746;-2.716;2024-02-21T03:46:34;5;5;
46094;PMS5003;31832;50.746;-2.716;2024-02-21T03:48:59;7;5;
46094;PMS5003;31832;50.746;-2.716;2024-02-21T03:51:25;5;4;
46094;PMS5003;31832;50.746;-2.716;2024-02-21T03:53:50;5;5;
46094;PMS5003;31832;50.746;-2.716;2024-02-21T03:56:15;8;6;
46094;PMS5003;31832;50.746;-2.716;2024-02-21T03:58:40;8;7;
46094;PMS5003;31832;50.746;-2.716;2024-02-21T04:01:05;7;5;
46094;PMS5003;31832;50.746;-2.716;2024-02-21T04:03:31;4;4;
46094;PMS5003;31832;50.746;-2.716;2024-02-21T04:05:56;6;5;
46094;PMS5003;31832;50.746;-2.716;2024-02-21T04:08:22;9;7;
46094;PMS5003;31832;50.746;-2.716;2024-02-21T04:10:46;6;5;
46094;PMS5003;31832;50.746;-2.716;2024-02-21T04:13:11;6;5;
46094;PMS5003;31832;50.746;-2.716;2024-02-21T04:15:37;5;5;
46094;PMS5003;31832;50.746;-2.716;2024-02-21T04:18:02;8;6;
46094;PMS5003;31832;50.746;-2.716;2024-02-21T04:20:27;6;4;
46094;PMS5003;31832;50.746;-2.716;2024-02-21T04:22:52;7;7;
46094;PMS5003;31832;50.746;-2.716;2024-02-21T04:25:18;9;7;
46094;PMS5003;31832;50.746;-2.716;2024-02-21T04:27:43;7;6;
46094;PMS5003;31832;50.746;-2.716;2024-02-21T04:30:09;6;6;
46094;PMS5003;31832;50.746;-2.716;2024-02-21T04:32:33;5;5;
46094;PMS5003;31832;50.746;-2.716;2024-02-21T04:34:58;4;4;
46094;PMS5003;31832;50.746;-2.716;2024-02-21T04:37:24;5;4;
46094;PMS5003;31832;50.746;-2.716;2024-02-21T04:39:50;6;4;
46094;PMS5003;31832;50.746;-2.716;2024-02-21T04:42:15;5;3;
46094;PMS5003;31832;50.746;-2.716;2024-02-21T04:44:40;6;4;
46094;PMS5003;31832;50.746;-2.716;2024-02-21T04:47:05;11;7;
46094;PMS5003;31832;50.746;-2.716;2024-02-21T04:49:30;6;6;
46094;PMS5003;31832;50.746;-2.716;2024-02-21T04:51:56;6;5;
46094;PMS5003;31832;50.746;-2.716;2024-02-21T04:54:21;6;6;
46094;PMS5003;31832;50.746;-2.716;2024-02-21T04:56:46;7;6;
46094;PMS5003;31832;50.746;-2.716;2024-02-21T04:59:12;6;6;
46094;PMS5003;31832;50.746;-2.716;2024-02-21T05:01:37;7;6;
46094;PMS5003;31832;50.746;-2.716;2024-02-21T05:04:03;9;8;
46094;PMS5003;31832;50.746;-2.716;2024-02-21T05:06:28;9;8;
46094;PMS5003;31832;50.746;-2.716;2024-02-21T05:08:53;8;8;
46094;PMS5003;31832;50.746;-2.716;2024-02-21T05:11:19;7;7;
46094;PMS5003;31832;50.746;-2.716;2024-02-21T05:13:44;8;6;
46094;PMS5003;31832;50.746;-2.716;2024-02-21T05:16:09;10;10;
46094;PMS5003;31832;50.746;-2.716;2024-02-21T05:18:35;7;6;
46094;PMS5003;31832;50.746;-2.716;2024-02-21T05:21:01;8;6;
46094;PMS5003;31832;50.746;-2.716;2024-02-21T05:23:26;10;9;
46094;PMS5003;31832;50.746;-2.716;2024-02-21T05:25:52;10;6;
46094;PMS5003;31832;50.746;-2.716;2024-02-21T05:28:17;5;5;
46094;PMS5003;31832;50.746;-2.716;2024-02-21T05:30:42;7;4;
46094;PMS5003;31832;50.746;-2.716;2024-02-21T05:33:08;7;5;
46094;PMS5003;31832;50.746;-2.716;2024-02-21T05:35:34;8;6;
46094;PMS5003;31832;50.746;-2.716;2024-02-21T05:37:59;4;4;
46094;PMS5003;31832;50.746;-2.716;2024-02-21T05:40:24;8;5;
46094;PMS5003;31832;50.746;-2.716;2024-02-21T05:42:49;5;5;
46094;PMS5003;31832;50.746;-2.716;2024-02-21T05:45:14;7;6;
46094;PMS5003;31832;50.746;-2.716;2024-02-21T05:47:40;10;7;
46094;PMS5003;31832;50.746;-2.716;2024-02-21T05:50:06;14;9;
46094;PMS5003;31832;50.746;-2.716;2024-02-21T05:52:31;11;7;
46094;PMS5003;31832;50.746;-2.716;2024-02-21T05:54:57;9;5;
46094;PMS5003;31832;50.746;-2.716;2024-02-21T05:57:23;8;6;
46094;PMS5003;31832;50.746;-2.716;2024-02-21T05:59:48;8;6;
46094;PMS5003;31832;50.746;-2.716;2024-02-21T06:02:13;7;4;
46094;PMS5003;31832;50.746;-2.716;2024-02-21T06:04:39;10;7;
46094;PMS5003;31832;50.746;-2.716;2024-02-21T06:07:05;11;9;
46094;PMS5003;31832;50.746;-2.716;2024-02-21T06:09:30;8;6;
46094;PMS5003;31832;50.746;-2.716;2024-02-21T06:11:55;9;9;
46094;PMS5003;31832;50.746;-2.716;2024-02-21T06:14:21;14;9;
46094;PMS5003;31832;50.746;-2.716;2024-02-21T06:16:47;9;7;
46094;PMS5003;31832;50.746;-2.716;2024-02-21T06:19:12;8;6;
46094;PMS5003;31832;50.746;-2.716;2024-02-21T06:21:38;9;9;
46094;PMS5003;31832;50.746;-2.716;2024-02-21T06:24:04;7;5;
46094;PMS5003;31832;50.746;-2.716;2024-02-21T06:26:29;9;7;
46094;PMS5003;31832;50.746;-2.716;2024-02-21T06:28:55;8;6;
46094;PMS5003;31832;50.746;-2.716;2024-02-21T06:31:20;8;7;
46094;PMS5003;31832;50.746;-2.716;2024-02-21T06:33:45;10;9;
46094;PMS5003;31832;50.746;-2.716;2024-02-21T06:36:10;8;5;
46094;PMS5003;31832;50.746;-2.716;2024-02-21T06:38:36;6;6;
46094;PMS5003;31832;50.746;-2.716;2024-02-21T06:41:01;8;8;
46094;PMS5003;31832;50.746;-2.716;2024-02-21T06:43:27;10;7;
46094;PMS5003;31832;50.746;-2.716;2024-02-21T06:45:53;6;5;
46094;PMS5003;31832;50.746;-2.716;2024-02-21T06:48:18;10;6;
46094;PMS5003;31832;50.746;-2.716;2024-02-21T06:50:43;12;7;
46094;PMS5003;31832;50.746;-2.716;2024-02-21T06:53:08;6;6;
46094;PMS5003;31832;50.746;-2.716;2024-02-21T06:55:34;7;4;
46094;PMS5003;31832;50.746;-2.716;2024-02-21T06:57:59;7;6;
46094;PMS5003;31832;50.746;-2.716;2024-02-21T07:00:24;9;7;
46094;PMS5003;31832;50.746;-2.716;2024-02-21T07:02:50;9;9;
46094;PMS5003;31832;50.746;-2.716;2024-02-21T07:05:15;6;6;
46094;PMS5003;31832;50.746;-2.716;2024-02-21T07:07:40;8;6;
46094;PMS5003;31832;50.746;-2.716;2024-02-21T07:10:06;11;8;
46094;PMS5003;31832;50.746;-2.716;2024-02-21T07:12:31;6;6;
46094;PMS5003;31832;50.746;-2.716;2024-02-21T07:14:56;7;6;
46094;PMS5003;31832;50.746;-2.716;2024-02-21T07:17:21;9;8;
46094;PMS5003;31832;50.746;-2.716;2024-02-21T07:19:47;7;6;
46094;PMS5003;31832;50.746;-2.716;2024-02-21T07:22:13;7;5;
46094;PMS5003;31832;50.746;-2.716;2024-02-21T07:24:38;7;4;
46094;PMS5003;31832;50.746;-2.716;2024-02-21T07:27:03;6;3;
46094;PMS5003;31832;50.746;-2.716;2024-02-21T07:29:28;12;7;
46094;PMS5003;31832;50.746;-2.716;2024-02-21T07:31:54;5;5;
46094;PMS5003;31832;50.746;-2.716;2024-02-21T07:34:19;9;7;
46094;PMS5003;31832;50.746;-2.716;2024-02-21T07:36:44;10;9;
46094;PMS5003;31832;50.746;-2.716;2024-02-21T07:39:10;13;9;
46094;PMS5003;31832;50.746;-2.716;2024-02-21T07:41:36;6;5;
46094;PMS5003;31832;50.746;-2.716;2024-02-21T07:44:01;8;6;
46094;PMS5003;31832;50.746;-2.716;2024-02-21T07:46:26;5;5;
46094;PMS5003;31832;50.746;-2.716;2024-02-21T07:48:52;9;9;
46094;PMS5003;31832;50.746;-2.716;2024-02-21T07:51:17;5;5;
46094;PMS5003;31832;50.746;-2.716;2024-02-21T07:53:43;6;5;
46094;PMS5003;31832;50.746;-2.716;2024-02-21T07:56:12;7;5;
46094;PMS5003;31832;50.746;-2.716;2024-02-21T07:58:32;12;8;
46094;PMS5003;31832;50.746;-2.716;2024-02-21T08:00:58;11;8;
46094;PMS5003;31832;50.746;-2.716;2024-02-21T08:03:23;6;5;
46094;PMS5003;31832;50.746;-2.716;2024-02-21T08:05:49;8;8;
46094;PMS5003;31832;50.746;-2.716;2024-02-21T08:08:15;8;6;
46094;PMS5003;31832;50.746;-2.716;2024-02-21T08:10:40;11;8;
46094;PMS5003;31832;50.746;-2.716;2024-02-21T08:13:06;8;6;
46094;PMS5003;31832;50.746;-2.716;2024-02-21T08:15:31;19;13;
46094;PMS5003;31832;50.746;-2.716;2024-02-21T08:17:57;6;5;
46094;PMS5003;31832;50.746;-2.716;2024-02-21T08:20:23;11;7;
46094;PMS5003;31832;50.746;-2.716;2024-02-21T08:22:48;8;6;
46094;PMS5003;31832;50.746;-2.716;2024-02-21T08:25:13;13;11;
46094;PMS5003;31832;50.746;-2.716;2024-02-21T08:27:39;7;7;
46094;PMS5003;31832;50.746;-2.716;2024-02-21T08:30:04;8;6;
46094;PMS5003;31832;50.746;-2.716;2024-02-21T08:32:29;5;3;
46094;PMS5003;31832;50.746;-2.716;2024-02-21T08:34:55;5;4;
46094;PMS5003;31832;50.746;-2.716;2024-02-21T08:37:20;8;7;
46094;PMS5003;31832;50.746;-2.716;2024-02-21T08:39:45;7;7;
46094;PMS5003;31832;50.746;-2.716;2024-02-21T08:42:10;9;7;
46094;PMS5003;31832;50.746;-2.716;2024-02-21T08:44:36;13;10;
46094;PMS5003;31832;50.746;-2.716;2024-02-21T08:47:02;5;4;
46094;PMS5003;31832;50.746;-2.716;2024-02-21T08:49:27;7;5;
46094;PMS5003;31832;50.746;-2.716;2024-02-21T08:51:53;9;7;
46094;PMS5003;31832;50.746;-2.716;2024-02-21T08:54:19;10;8;
46094;PMS5003;31832;50.746;-2.716;2024-02-21T08:56:44;7;6;
46094;PMS5003;31832;50.746;-2.716;2024-02-21T08:59:10;8;8;
46094;PMS5003;31832;50.746;-2.716;2024-02-21T09:01:36;13;9;
46094;PMS5003;31832;50.746;-2.716;2024-02-21T09:04:01;7;6;
46094;PMS5003;31832;50.746;-2.716;2024-02-21T09:06:27;6;6;
46094;PMS5003;31832;50.746;-2.716;2024-02-21T09:08:52;8;7;
46094;PMS5003;31832;50.746;-2.716;2024-02-21T09:11:17;7;4;
46094;PMS5003;31832;50.746;-2.716;2024-02-21T09:13:42;5;5;
46094;PMS5003;31832;50.746;-2.716;2024-02-21T09:18:33;6;6;
46094;PMS5003;31832;50.746;-2.716;2024-02-21T09:20:59;8;7;
46094;PMS5003;31832;50.746;-2.716;2024-02-21T09:23:25;11;5;
46094;PMS5003;31832;50.746;-2.716;2024-02-21T09:25:50;10;7;
46094;PMS5003;31832;50.746;-2.716;2024-02-21T09:28:15;14;9;
46094;PMS5003;31832;50.746;-2.716;2024-02-21T09:30:41;7;6;
46094;PMS5003;31832;50.746;-2.716;2024-02-21T09:33:06;5;4;
46094;PMS5003;31832;50.746;-2.716;2024-02-21T09:35:31;9;4;
46094;PMS5003;31832;50.746;-2.716;2024-02-21T09:37:56;5;5;
46094;PMS5003;31832;50.746;-2.716;2024-02-21T09:40:22;5;4;
46094;PMS5003;31832;50.746;-2.716;2024-02-21T09:42:47;7;6;
46094;PMS5003;31832;50.746;-2.716;2024-02-21T09:45:19;5;5;
46094;PMS5003;31832;50.746;-2.716;2024-02-21T09:47:40;9;8;
46094;PMS5003;31832;50.746;-2.716;2024-02-21T09:50:03;4;4;
46094;PMS5003;31832;50.746;-2.716;2024-02-21T09:52:28;4;4;
46094;PMS5003;31832;50.746;-2.716;2024-02-21T09:54:53;6;5;
46094;PMS5003;31832;50.746;-2.716;2024-02-21T09:57:19;7;6;
46094;PMS5003;31832;50.746;-2.716;2024-02-21T09:59:45;8;4;
46094;PMS5003;31832;50.746;-2.716;2024-02-21T10:02:10;8;4;
46094;PMS5003;31832;50.746;-2.716;2024-02-21T10:07:06;7;7;
46094;PMS5003;31832;50.746;-2.716;2024-02-21T10:09:26;7;4;
46094;PMS5003;31832;50.746;-2.716;2024-02-21T10:11:52;9;8;
46094;PMS5003;31832;50.746;-2.716;2024-02-21T10:14:17;9;8;
46094;PMS5003;31832;50.746;-2.716;2024-02-21T10:16:43;5;5;
46094;PMS5003;31832;50.746;-2.716;2024-02-21T10:21:34;4;4;
46094;PMS5003;31832;50.746;-2.716;2024-02-21T10:23:59;6;4;
46094;PMS5003;31832;50.746;-2.716;2024-02-21T10:26:24;5;4;
46094;PMS5003;31832;50.746;-2.716;2024-02-21T10:28:49;6;3;
46094;PMS5003;31832;50.746;-2.716;2024-02-21T10:33:40;9;6;
46094;PMS5003;31832;50.746;-2.716;2024-02-21T10:36:07;21;20;
46094;PMS5003;31832;50.746;-2.716;2024-02-21T10:38:30;15;15;
46094;PMS5003;31832;50.746;-2.716;2024-02-21T10:40:56;11;11;
46094;PMS5003;31832;50.746;-2.716;2024-02-21T10:43:22;14;11;
46094;PMS5003;31832;50.746;-2.716;2024-02-21T10:45:47;9;7;
46094;PMS5003;31832;50.746;-2.716;2024-02-21T10:48:13;9;8;
46094;PMS5003;31832;50.746;-2.716;2024-02-21T10:50:42;9;8;
46094;PMS5003;31832;50.746;-2.716;2024-02-21T10:53:05;7;6;
46094;PMS5003;31832;50.746;-2.716;2024-02-21T10:55:29;8;6;
46094;PMS5003;31832;50.746;-2.716;2024-02-21T10:57:54;8;8;
46094;PMS5003;31832;50.746;-2.716;2024-02-21T11:00:19;6;5;
46094;PMS5003;31832;50.746;-2.716;2024-02-21T11:02:44;12;4;
46094;PMS5003;31832;50.746;-2.716;2024-02-21T11:05:15;3;2;
46094;PMS5003;31832;50.746;-2.716;2024-02-21T11:07:35;7;5;
46094;PMS5003;31832;50.746;-2.716;2024-02-21T11:10:00;6;4;
46094;PMS5003;31832;50.746;-2.716;2024-02-21T11:12:26;11;6;
46094;PMS5003;31832;50.746;-2.716;2024-02-21T11:14:51;9;5;
46094;PMS5003;31832;50.746;-2.716;2024-02-21T11:17:16;9;5;
46094;PMS5003;31832;50.746;-2.716;2024-02-21T11:19:41;5;5;
46094;PMS5003;31832;50.746;-2.716;2024-02-21T11:22:13;8;5;
46094;PMS5003;31832;50.746;-2.716;2024-02-21T11:24:32;5;3;
46094;PMS5003;31832;50.746;-2.716;2024-02-21T11:29:23;7;4;
46094;PMS5003;31832;50.746;-2.716;2024-02-21T11:31:48;6;6;
46094;PMS5003;31832;50.746;-2.716;2024-02-21T11:34:16;7;6;
46094;PMS5003;31832;50.746;-2.716;2024-02-21T11:39:05;12;10;
46094;PMS5003;31832;50.746;-2.716;2024-02-21T11:41:31;9;7;
46094;PMS5003;31832;50.746;-2.716;2024-02-21T11:43:56;8;5;
46094;PMS5003;31832;50.746;-2.716;2024-02-21T11:46:22;9;5;
46094;PMS5003;31832;50.746;-2.716;2024-02-21T11:48:47;6;6;
46094;PMS5003;31832;50.746;-2.716;2024-02-21T11:51:12;7;5;
46094;PMS5003;31832;50.746;-2.716;2024-02-21T11:53:39;8;6;
46094;PMS5003;31832;50.746;-2.716;2024-02-21T11:56:05;9;8;
46094;PMS5003;31832;50.746;-2.716;2024-02-21T11:58:29;9;9;
46094;PMS5003;31832;50.746;-2.716;2024-02-21T12:00:54;13;8;
46094;PMS5003;31832;50.746;-2.716;2024-02-21T12:03:20;11;8;
46094;PMS5003;31832;50.746;-2.716;2024-02-21T12:05:46;7;4;
46094;PMS5003;31832;50.746;-2.716;2024-02-21T12:08:11;8;4;
46094;PMS5003;31832;50.746;-2.716;2024-02-21T12:10:37;9;3;
46094;PMS5003;31832;50.746;-2.716;2024-02-21T12:13:06;8;6;
46094;PMS5003;31832;50.746;-2.716;2024-02-21T12:15:28;7;5;
46094;PMS5003;31832;50.746;-2.716;2024-02-21T12:17:54;7;7;
46094;PMS5003;31832;50.746;-2.716;2024-02-21T12:22:44;8;6;
46094;PMS5003;31832;50.746;-2.716;2024-02-21T12:27:34;6;5;
46094;PMS5003;31832;50.746;-2.716;2024-02-21T12:29:59;9;6;
46094;PMS5003;31832;50.746;-2.716;2024-02-21T12:32:25;10;7;
46094;PMS5003;31832;50.746;-2.716;2024-02-21T12:34:50;9;6;
46094;PMS5003;31832;50.746;-2.716;2024-02-21T12:37:16;7;4;
46094;PMS5003;31832;50.746;-2.716;2024-02-21T12:39:42;4;4;
46094;PMS5003;31832;50.746;-2.716;2024-02-21T12:42:07;6;6;
46094;PMS5003;31832;50.746;-2.716;2024-02-21T12:44:32;8;6;
46094;PMS5003;31832;50.746;-2.716;2024-02-21T12:47:03;6;5;
46094;PMS5003;31832;50.746;-2.716;2024-02-21T12:49:23;7;5;
46094;PMS5003;31832;50.746;-2.716;2024-02-21T12:51:48;9;5;
46094;PMS5003;31832;50.746;-2.716;2024-02-21T12:54:13;5;5;
46094;PMS5003;31832;50.746;-2.716;2024-02-21T12:56:38;5;4;
46094;PMS5003;31832;50.746;-2.716;2024-02-21T12:59:08;9;6;
46094;PMS5003;31832;50.746;-2.716;2024-02-21T13:01:29;7;6;
46094;PMS5003;31832;50.746;-2.716;2024-02-21T13:03:54;6;5;
46094;PMS5003;31832;50.746;-2.716;2024-02-21T13:06:19;5;4;
46094;PMS5003;31832;50.746;-2.716;2024-02-21T13:08:44;7;4;
46094;PMS5003;31832;50.746;-2.716;2024-02-21T13:11:10;9;8;
46094;PMS5003;31832;50.746;-2.716;2024-02-21T13:13:35;6;4;
46094;PMS5003;31832;50.746;-2.716;2024-02-21T13:16:01;9;7;
46094;PMS5003;31832;50.746;-2.716;2024-02-21T13:18:26;7;6;
46094;PMS5003;31832;50.746;-2.716;2024-02-21T13:20:52;9;7;
46094;PMS5003;31832;50.746;-2.716;2024-02-21T13:23:17;3;3;
46094;PMS5003;31832;50.746;-2.716;2024-02-21T13:25:45;6;5;
46094;PMS5003;31832;50.746;-2.716;2024-02-21T13:28:08;7;5;
46094;PMS5003;31832;50.746;-2.716;2024-02-21T13:30:33;7;6;
46094;PMS5003;31832;50.746;-2.716;2024-02-21T13:32:59;6;5;
46094;PMS5003;31832;50.746;-2.716;2024-02-21T13:35:24;8;5;
46094;PMS5003;31832;50.746;-2.716;2024-02-21T13:37:50;8;7;
46094;PMS5003;31832;50.746;-2.716;2024-02-21T13:40:15;6;5;
46094;PMS5003;31832;50.746;-2.716;2024-02-21T13:42:41;8;5;
46094;PMS5003;31832;50.746;-2.716;2024-02-21T13:45:06;4;3;
46094;PMS5003;31832;50.746;-2.716;2024-02-21T13:47:32;2;2;
46094;PMS5003;31832;50.746;-2.716;2024-02-21T13:49:56;7;6;
46094;PMS5003;31832;50.746;-2.716;2024-02-21T13:52:22;6;3;
46094;PMS5003;31832;50.746;-2.716;2024-02-21T13:54:47;3;3;
46094;PMS5003;31832;50.746;-2.716;2024-02-21T13:57:13;10;7;
46094;PMS5003;31832;50.746;-2.716;2024-02-21T13:59:38;9;5;
46094;PMS5003;31832;50.746;-2.716;2024-02-21T14:02:03;3;2;
46094;PMS5003;31832;50.746;-2.716;2024-02-21T14:04:28;7;4;
46094;PMS5003;31832;50.746;-2.716;2024-02-21T14:06:54;6;3;
46094;PMS5003;31832;50.746;-2.716;2024-02-21T14:09:19;4;3;
46094;PMS5003;31832;50.746;-2.716;2024-02-21T14:11:44;2;2;
46094;PMS5003;31832;50.746;-2.716;2024-02-21T14:14:10;5;3;
46094;PMS5003;31832;50.746;-2.716;2024-02-21T14:16:35;4;3;
46094;PMS5003;31832;50.746;-2.716;2024-02-21T14:19:00;5;2;
46094;PMS5003;31832;50.746;-2.716;2024-02-21T14:21:26;5;3;
46094;PMS5003;31832;50.746;-2.716;2024-02-21T14:23:51;4;3;
46094;PMS5003;31832;50.746;-2.716;2024-02-21T14:26:17;2;2;
46094;PMS5003;31832;50.746;-2.716;2024-02-21T14:28:42;4;3;
46094;PMS5003;31832;50.746;-2.716;2024-02-21T14:31:07;3;2;
46094;PMS5003;31832;50.746;-2.716;2024-02-21T14:33:33;2;2;
46094;PMS5003;31832;50.746;-2.716;2024-02-21T14:35:58;2;2;
46094;PMS5003;31832;50.746;-2.716;2024-02-21T14:38:23;3;1;
46094;PMS5003;31832;50.746;-2.716;2024-02-21T14:40:48;3;3;
46094;PMS5003;31832;50.746;-2.716;2024-02-21T14:43:14;4;2;
46094;PMS5003;31832;50.746;-2.716;2024-02-21T14:45:41;4;2;
46094;PMS5003;31832;50.746;-2.716;2024-02-21T14:48:04;2;1;
46094;PMS5003;31832;50.746;-2.716;2024-02-21T14:50:30;3;2;
46094;PMS5003;31832;50.746;-2.716;2024-02-21T14:52:54;3;2;
46094;PMS5003;31832;50.746;-2.716;2024-02-21T14:55:19;4;2;
46094;PMS5003;31832;50.746;-2.716;2024-02-21T14:57:45;2;2;
46094;PMS5003;31832;50.746;-2.716;2024-02-21T15:00:11;3;1;
46094;PMS5003;31832;50.746;-2.716;2024-02-21T15:02:36;4;3;
46094;PMS5003;31832;50.746;-2.716;2024-02-21T15:05:01;5;3;
46094;PMS5003;31832;50.746;-2.716;2024-02-21T15:07:26;4;4;
46094;PMS5003;31832;50.746;-2.716;2024-02-21T15:09:51;2;2;
46094;PMS5003;31832;50.746;-2.716;2024-02-21T15:12:16;1;1;
46094;PMS5003;31832;50.746;-2.716;2024-02-21T15:14:41;5;4;
46094;PMS5003;31832;50.746;-2.716;2024-02-21T15:17:06;2;1;
46094;PMS5003;31832;50.746;-2.716;2024-02-21T15:19:32;1;1;
46094;PMS5003;31832;50.746;-2.716;2024-02-21T15:21:57;3;3;
46094;PMS5003;31832;50.746;-2.716;2024-02-21T15:24:22;6;5;
46094;PMS5003;31832;50.746;-2.716;2024-02-21T15:26:48;2;2;
46094;PMS5003;31832;50.746;-2.716;2024-02-21T15:29:13;2;2;
46094;PMS5003;31832;50.746;-2.716;2024-02-21T15:31:38;2;1;
46094;PMS5003;31832;50.746;-2.716;2024-02-21T15:34:03;5;5;
46094;PMS5003;31832;50.746;-2.716;2024-02-21T15:36:28;1;0;
46094;PMS5003;31832;50.746;-2.716;2024-02-21T15:38:53;4;4;
46094;PMS5003;31832;50.746;-2.716;2024-02-21T15:41:19;8;6;
46094;PMS5003;31832;50.746;-2.716;2024-02-21T15:43:44;4;4;
46094;PMS5003;31832;50.746;-2.716;2024-02-21T15:46:10;6;3;
46094;PMS5003;31832;50.746;-2.716;2024-02-21T15:48:34;4;3;
46094;PMS5003;31832;50.746;-2.716;2024-02-21T15:50:59;7;5;
46094;PMS5003;31832;50.746;-2.716;2024-02-21T15:53:24;4;2;
46094;PMS5003;31832;50.746;-2.716;2024-02-21T15:55:50;8;4;
46094;PMS5003;31832;50.746;-2.716;2024-02-21T15:58:15;7;4;
46094;PMS5003;31832;50.746;-2.716;2024-02-21T16:00:40;4;4;
46094;PMS5003;31832;50.746;-2.716;2024-02-21T16:03:06;4;3;
46094;PMS5003;31832;50.746;-2.716;2024-02-21T16:05:31;4;3;
46094;PMS5003;31832;50.746;-2.716;2024-02-21T16:07:56;5;4;
46094;PMS5003;31832;50.746;-2.716;2024-02-21T16:10:22;4;3;
46094;PMS5003;31832;50.746;-2.716;2024-02-21T16:12:47;5;5;
46094;PMS5003;31832;50.746;-2.716;2024-02-21T16:15:12;5;5;
46094;PMS5003;31832;50.746;-2.716;2024-02-21T16:17:38;5;3;
46094;PMS5003;31832;50.746;-2.716;2024-02-21T16:20:04;4;2;
46094;PMS5003;31832;50.746;-2.716;2024-02-21T16:22:28;7;4;
46094;PMS5003;31832;50.746;-2.716;2024-02-21T16:24:54;7;4;
46094;PMS5003;31832;50.746;-2.716;2024-02-21T16:27:19;5;4;
46094;PMS5003;31832;50.746;-2.716;2024-02-21T16:29:44;9;7;
46094;PMS5003;31832;50.746;-2.716;2024-02-21T16:32:13;7;6;
46094;PMS5003;31832;50.746;-2.716;2024-02-21T16:34:35;4;3;